KCDN/CDN METAR and TAF weather

Enter ICAO airport designator
Station Type Date Time Source
KCDN METAR 2022/12/10 01:55 UTC NOAA

KCDN 100155Z AUTO 00000KT 6SM -DZ OVC036 10/10 A3020 RMK AO2


Station Type Date Time Source
KCDN Decoded METAR 2022/12/10 01:55 UTC NOAA

Station name not available
Dec 09, 2022 - 08:55 PM EST / 2022.12.10 0155 UTC
Wind: Calm:0
Visibility: 6 mile(s):0
Sky conditions: overcast
Weather: light drizzle
Temperature: 50 F (10 C)
Dew Point: 50 F (10 C)
Relative Humidity: 100%
Pressure (altimeter): 30.2 in. Hg (1022 hPa)
ob: KCDN 100155Z AUTO 00000KT 6SM -DZ OVC036 10/10 A3020 RMK AO2
cycle: 2

Station Type Date Time Source
KCDN TAF UTC NOAA

Error!

Example: see airport list